createdAt,value
2022-10-17T00:00:35.561Z,65.27
2022-10-17T00:03:58.373Z,65.21
2022-10-17T00:07:01.202Z,65.24
2022-10-17T00:10:05.824Z,65.18
2022-10-17T00:13:09.656Z,65.24
2022-10-17T00:16:12.506Z,65.29
2022-10-17T00:19:15.321Z,65.31
2022-10-17T00:22:18.205Z,65.32
2022-10-17T00:25:21.038Z,65.25
2022-10-17T00:28:23.888Z,65.26
2022-10-17T00:31:26.852Z,65.13
2022-10-17T00:34:31.191Z,65.23
2022-10-17T00:37:34.591Z,65.29
2022-10-17T00:40:37.491Z,65.35
2022-10-17T00:44:02.141Z,65.27
2022-10-17T00:47:08.511Z,65.32
2022-10-17T00:50:13.058Z,65.39
2022-10-17T00:53:16.849Z,65.40
2022-10-17T00:56:21.256Z,65.41
2022-10-17T00:59:25.032Z,65.38
2022-10-17T01:02:28.127Z,65.55
2022-10-17T01:05:31.251Z,65.66
2022-10-17T01:08:34.544Z,65.63
2022-10-17T01:11:56.973Z,65.61
2022-10-17T01:15:08.855Z,65.80
2022-10-17T01:18:43.200Z,65.76
2022-10-17T01:22:10.158Z,65.82
2022-10-17T01:25:42.689Z,65.99
2022-10-17T01:29:13.255Z,65.97
2022-10-17T01:32:28.130Z,66.02
2022-10-17T01:35:48.568Z,66.01
2022-10-17T01:39:06.134Z,65.94
2022-10-17T01:42:27.408Z,66.16
2022-10-17T01:45:41.228Z,65.99
2022-10-17T01:48:46.250Z,65.98
2022-10-17T01:51:55.726Z,65.94
2022-10-17T01:55:06.975Z,65.97
2022-10-17T01:58:30.089Z,65.94
2022-10-17T02:01:37.506Z,65.96
2022-10-17T02:04:41.397Z,65.93
2022-10-17T02:07:44.302Z,65.87
2022-10-17T02:10:59.223Z,65.81
2022-10-17T02:14:25.104Z,65.86
2022-10-17T02:17:36.362Z,65.82
2022-10-17T02:20:49.642Z,65.76
2022-10-17T02:24:20.409Z,65.71
2022-10-17T02:27:35.358Z,65.76
2022-10-17T02:30:58.406Z,65.72
2022-10-17T02:34:05.074Z,65.73
2022-10-17T02:37:11.502Z,65.68
2022-10-17T02:40:17.587Z,65.68
2022-10-17T02:43:21.980Z,65.65
2022-10-17T02:46:28.014Z,65.73
2022-10-17T02:49:39.210Z,65.74
2022-10-17T02:52:58.120Z,65.73
2022-10-17T02:56:14.327Z,65.72
2022-10-17T02:59:20.771Z,65.67
2022-10-17T03:02:23.685Z,65.67
2022-10-17T03:05:29.144Z,65.62
2022-10-17T03:08:32.098Z,65.62
2022-10-17T03:11:36.308Z,65.70
2022-10-17T03:14:39.317Z,65.65
2022-10-17T03:17:42.932Z,65.55
2022-10-17T03:20:46.137Z,65.70
2022-10-17T03:23:49.131Z,65.57
2022-10-17T03:26:52.459Z,65.66
2022-10-17T03:29:55.694Z,65.75
2022-10-17T03:32:59.514Z,65.68
2022-10-17T03:36:11.643Z,65.73
2022-10-17T03:39:14.723Z,65.66
2022-10-17T03:42:17.714Z,65.75
2022-10-17T03:45:20.850Z,65.74
2022-10-17T03:48:41.433Z,65.80
2022-10-17T03:51:44.549Z,65.89
2022-10-17T03:54:51.014Z,65.85
2022-10-17T03:57:54.196Z,65.83
2022-10-17T04:00:57.238Z,65.89
2022-10-17T04:04:00.234Z,65.82
2022-10-17T04:07:06.058Z,65.95
2022-10-17T04:10:10.993Z,65.87
2022-10-17T04:13:14.227Z,65.87
2022-10-17T04:16:17.362Z,65.95
2022-10-17T04:19:34.238Z,65.95
2022-10-17T04:22:37.484Z,65.94
2022-10-17T04:25:40.603Z,65.98
2022-10-17T04:28:43.533Z,66.09
2022-10-17T04:31:46.642Z,66.14
2022-10-17T04:34:59.602Z,66.16
2022-10-17T04:38:03.602Z,66.14
2022-10-17T04:41:10.277Z,66.24
2022-10-17T04:44:13.217Z,66.19
2022-10-17T04:47:19.074Z,66.18
2022-10-17T04:50:22.255Z,66.31
2022-10-17T04:53:42.587Z,66.25
2022-10-17T04:56:47.206Z,66.26
2022-10-17T04:59:50.133Z,66.25
2022-10-17T05:03:19.048Z,66.15
2022-10-17T05:06:25.070Z,66.08
2022-10-17T05:09:43.101Z,66.15
2022-10-17T05:12:48.157Z,66.14
2022-10-17T05:15:51.957Z,66.16
2022-10-17T05:18:56.783Z,66.21
2022-10-17T05:22:02.925Z,66.19
2022-10-17T05:25:06.473Z,66.13
2022-10-17T05:28:09.777Z,66.11
2022-10-17T05:31:14.134Z,65.96
2022-10-17T05:34:18.018Z,66.01
2022-10-17T05:37:20.970Z,66.11
2022-10-17T05:40:26.276Z,66.14
2022-10-17T05:43:30.127Z,66.23
2022-10-17T05:46:33.023Z,66.27
2022-10-17T05:49:52.438Z,66.36
2022-10-17T05:53:03.439Z,66.29
2022-10-17T05:56:08.994Z,66.26
2022-10-17T05:59:12.833Z,66.24
2022-10-17T06:02:24.863Z,66.30
2022-10-17T06:05:27.873Z,66.28
2022-10-17T06:08:32.324Z,66.42
2022-10-17T06:11:36.368Z,66.47
2022-10-17T06:14:39.253Z,66.56
2022-10-17T06:17:42.734Z,66.60
2022-10-17T06:20:46.219Z,66.62
2022-10-17T06:23:51.559Z,66.62
2022-10-17T06:27:11.008Z,66.68
2022-10-17T06:30:15.345Z,66.69
2022-10-17T06:33:18.313Z,66.72
2022-10-17T06:36:21.384Z,66.81
2022-10-17T06:39:26.941Z,66.80
2022-10-17T06:42:56.411Z,66.80
2022-10-17T06:46:01.783Z,66.86
2022-10-17T06:49:13.029Z,66.85
2022-10-17T06:52:34.887Z,66.79
2022-10-17T06:56:01.611Z,66.90
2022-10-17T06:59:33.471Z,66.98
2022-10-17T07:02:46.337Z,67.03
2022-10-17T07:05:53.495Z,66.97
2022-10-17T07:08:56.385Z,66.98
2022-10-17T07:12:00.636Z,66.88
2022-10-17T07:15:04.987Z,66.86
2022-10-17T07:18:08.282Z,66.98
2022-10-17T07:21:11.327Z,66.94
2022-10-17T07:24:16.072Z,67.00
2022-10-17T07:27:23.326Z,67.00
2022-10-17T07:30:27.263Z,66.87
2022-10-17T07:33:38.613Z,66.81
2022-10-17T07:36:41.709Z,66.70
2022-10-17T07:39:44.976Z,66.66
2022-10-17T07:42:48.327Z,66.53
2022-10-17T07:45:52.600Z,66.60
2022-10-17T07:48:55.415Z,66.47
2022-10-17T07:51:58.491Z,66.36
2022-10-17T07:55:01.548Z,66.40
2022-10-17T07:58:04.429Z,66.23
2022-10-17T08:01:14.751Z,66.16
2022-10-17T08:04:18.553Z,66.16
2022-10-17T08:07:25.312Z,66.14
2022-10-17T08:10:31.339Z,65.91
2022-10-17T08:13:34.579Z,65.99
2022-10-17T08:16:37.506Z,65.93
2022-10-17T08:19:40.812Z,65.84
2022-10-17T08:22:43.785Z,65.70
2022-10-17T08:25:47.047Z,65.54
2022-10-17T08:28:49.906Z,65.50
2022-10-17T08:31:56.289Z,65.33
2022-10-17T08:35:04.460Z,65.39
2022-10-17T08:38:09.950Z,65.28
2022-10-17T08:41:36.568Z,65.24
2022-10-17T08:44:57.425Z,65.21
2022-10-17T08:48:02.613Z,65.05
2022-10-17T08:59:59.696Z,64.32
2022-10-17T09:03:16.742Z,64.02
2022-10-17T09:06:29.978Z,63.88
2022-10-17T09:09:50.144Z,63.73
2022-10-17T09:13:10.540Z,63.40
2022-10-17T09:16:36.882Z,63.24
2022-10-17T09:19:43.575Z,63.15
2022-10-17T09:23:06.015Z,63.03
2022-10-17T09:26:11.152Z,62.95
2022-10-17T09:29:21.384Z,62.85
2022-10-17T09:32:24.657Z,62.63
2022-10-17T09:35:29.616Z,62.62
2022-10-17T09:38:39.766Z,62.65
2022-10-17T09:41:51.437Z,62.65
2022-10-17T09:45:16.099Z,62.63
2022-10-17T09:48:34.476Z,62.56
2022-10-17T09:51:38.090Z,62.53
2022-10-17T09:54:52.661Z,62.45
2022-10-17T09:58:10.111Z,62.38
2022-10-17T10:01:23.996Z,62.41
2022-10-17T10:04:30.244Z,62.40
2022-10-17T10:07:51.605Z,62.33
2022-10-17T10:11:00.095Z,62.28
2022-10-17T10:14:34.035Z,62.24
2022-10-17T10:18:26.178Z,62.09
2022-10-17T10:21:28.183Z,62.02
2022-10-17T10:25:17.087Z,62.06
2022-10-17T10:28:25.678Z,62.05
2022-10-17T10:31:39.197Z,61.95
2022-10-17T10:35:18.636Z,61.72
2022-10-17T10:38:22.452Z,61.52
2022-10-17T10:41:48.167Z,61.25
2022-10-17T10:44:56.036Z,61.00
2022-10-17T10:48:19.168Z,60.82
2022-10-17T10:51:27.089Z,60.70
2022-10-17T10:54:36.049Z,60.45
2022-10-17T10:57:44.348Z,60.33
2022-10-17T11:00:47.291Z,60.27
2022-10-17T11:04:23.043Z,60.17
2022-10-17T11:07:46.408Z,60.00
2022-10-17T11:11:13.171Z,59.90
2022-10-17T11:14:31.266Z,59.87
2022-10-17T11:17:56.325Z,59.86
2022-10-17T11:21:16.119Z,59.82
2022-10-17T11:24:29.341Z,59.68
2022-10-17T11:27:33.375Z,59.69
2022-10-17T11:30:45.999Z,59.73
2022-10-17T11:33:53.487Z,59.68
2022-10-17T11:37:09.097Z,59.53
2022-10-17T11:40:44.517Z,59.51
2022-10-17T11:44:02.747Z,59.40
2022-10-17T11:47:25.659Z,59.39
2022-10-17T11:54:22.733Z,59.31
2022-10-17T11:57:44.794Z,59.28
2022-10-17T12:00:56.122Z,59.24
2022-10-17T12:04:06.786Z,59.23
2022-10-17T12:07:21.694Z,59.16
2022-10-17T12:10:47.928Z,59.14
2022-10-17T12:13:53.885Z,59.13
2022-10-17T12:16:55.476Z,59.08
2022-10-17T12:20:25.024Z,59.08
2022-10-17T12:23:28.361Z,59.04
2022-10-17T12:26:30.259Z,58.92
2022-10-17T12:29:32.038Z,58.94
2022-10-17T12:32:46.848Z,58.91
2022-10-17T12:36:28.082Z,58.78
2022-10-17T12:39:29.549Z,58.71
2022-10-17T12:42:32.557Z,58.59
2022-10-17T12:46:02.911Z,58.53
2022-10-17T12:49:20.343Z,58.47
2022-10-17T12:52:34.812Z,58.49
2022-10-17T12:55:36.710Z,58.40
2022-10-17T12:58:48.828Z,58.33
2022-10-17T13:02:01.179Z,58.25
2022-10-17T13:05:18.797Z,58.29
2022-10-17T13:08:34.041Z,58.24
2022-10-17T13:12:21.327Z,58.22
2022-10-17T13:15:23.305Z,58.18
2022-10-17T13:18:31.982Z,58.11
2022-10-17T13:26:45.495Z,58.22
2022-10-17T13:29:48.008Z,58.14
2022-10-17T13:32:49.829Z,58.11
2022-10-17T13:36:06.939Z,58.12
2022-10-17T13:39:14.993Z,58.09
2022-10-17T13:42:30.548Z,58.01
2022-10-17T13:45:37.674Z,58.01
2022-10-17T13:54:55.396Z,58.24
2022-10-17T14:04:19.472Z,58.09
2022-10-17T14:18:20.235Z,58.13
2022-10-17T14:21:40.900Z,58.23
2022-10-17T14:24:47.070Z,58.19
2022-10-17T14:28:02.293Z,58.23
2022-10-17T14:31:20.274Z,58.26
2022-10-17T14:34:29.923Z,58.32
2022-10-17T14:37:46.421Z,58.37
2022-10-17T14:40:51.750Z,58.38
2022-10-17T14:44:00.926Z,58.40
2022-10-17T14:47:30.906Z,58.46
2022-10-17T14:50:31.976Z,58.42
2022-10-17T14:53:34.965Z,58.47
2022-10-17T14:56:41.801Z,58.46
2022-10-17T15:00:00.167Z,58.46
2022-10-17T15:03:03.068Z,58.54
2022-10-17T15:06:24.636Z,58.55
2022-10-17T15:09:29.013Z,58.63
2022-10-17T15:12:32.883Z,58.64
2022-10-17T15:15:37.390Z,58.64
2022-10-17T15:18:40.234Z,58.71
2022-10-17T15:21:46.949Z,58.75
2022-10-17T15:24:50.516Z,58.85
2022-10-17T15:27:54.387Z,58.88
2022-10-17T15:30:57.249Z,58.94
2022-10-17T15:34:00.146Z,59.01
2022-10-17T15:37:04.799Z,59.13
2022-10-17T15:40:14.686Z,59.29
2022-10-17T15:43:19.911Z,59.43
2022-10-17T15:46:28.778Z,59.64
2022-10-17T15:49:31.606Z,59.72
2022-10-17T15:52:35.409Z,59.90
2022-10-17T15:55:38.299Z,60.07
2022-10-17T15:58:41.141Z,60.26
2022-10-17T16:01:44.660Z,60.40
2022-10-17T16:04:49.389Z,60.49
2022-10-17T16:07:53.692Z,60.71
2022-10-17T16:10:56.649Z,60.77
2022-10-17T16:14:02.385Z,60.86
2022-10-17T16:17:05.241Z,60.95
2022-10-17T16:20:08.405Z,61.14
2022-10-17T16:23:13.408Z,61.28
2022-10-17T16:26:16.370Z,61.40
2022-10-17T16:29:19.162Z,61.51
2022-10-17T16:32:22.044Z,61.60
2022-10-17T16:35:31.867Z,61.64
2022-10-17T16:38:38.053Z,61.69
2022-10-17T16:41:41.292Z,61.93
2022-10-17T16:44:44.638Z,61.94
2022-10-17T16:47:50.776Z,62.12
2022-10-17T16:50:54.082Z,62.17
2022-10-17T16:54:00.223Z,62.20
2022-10-17T16:57:05.814Z,62.31
2022-10-17T17:00:12.159Z,62.33
2022-10-17T17:03:15.908Z,62.40
2022-10-17T17:06:29.497Z,62.53
2022-10-17T17:09:32.666Z,62.59
2022-10-17T17:12:40.203Z,62.52
2022-10-17T17:18:51.472Z,62.51
2022-10-17T17:21:54.488Z,62.61
2022-10-17T17:24:57.478Z,62.58
2022-10-17T17:28:03.454Z,62.65
2022-10-17T17:31:09.191Z,62.61
2022-10-17T17:34:14.345Z,62.60
2022-10-17T17:37:20.211Z,62.62
2022-10-17T17:40:23.318Z,62.67
2022-10-17T17:43:26.283Z,62.64
2022-10-17T17:46:29.255Z,62.73
2022-10-17T17:49:32.400Z,62.65
2022-10-17T17:52:35.581Z,62.63
2022-10-17T17:55:41.010Z,62.70
2022-10-17T17:59:01.559Z,62.56
2022-10-17T18:02:07.050Z,62.61
2022-10-17T18:05:10.308Z,62.69
2022-10-17T18:08:13.271Z,62.63
2022-10-17T18:11:18.408Z,62.68
2022-10-17T18:14:24.261Z,62.66
2022-10-17T18:17:27.738Z,62.74
2022-10-17T18:20:30.515Z,62.80
2022-10-17T18:23:37.584Z,62.80
2022-10-17T18:26:40.405Z,62.71
2022-10-17T18:29:46.243Z,62.91
2022-10-17T18:32:49.095Z,62.72
2022-10-17T18:35:51.915Z,62.78
2022-10-17T18:38:55.567Z,62.87
2022-10-17T18:41:58.456Z,62.81
2022-10-17T18:45:05.914Z,62.80
2022-10-17T18:48:10.327Z,62.80
2022-10-17T18:51:15.433Z,62.81
2022-10-17T18:54:21.445Z,62.87
2022-10-17T18:57:26.173Z,62.84
2022-10-17T19:00:31.838Z,62.75
2022-10-17T19:03:34.903Z,62.83
2022-10-17T19:06:38.897Z,62.85
2022-10-17T19:09:43.601Z,62.76
2022-10-17T19:12:47.561Z,62.85
2022-10-17T19:15:53.753Z,62.83
2022-10-17T19:18:59.219Z,62.85
2022-10-17T19:22:03.574Z,62.91
2022-10-17T19:25:07.498Z,62.97
2022-10-17T19:28:10.553Z,63.03
2022-10-17T19:31:16.977Z,62.91
2022-10-17T19:34:20.881Z,62.91
2022-10-17T19:37:24.036Z,62.79
2022-10-17T19:40:27.594Z,62.65
2022-10-17T19:43:30.991Z,62.60
2022-10-17T19:46:37.784Z,62.56
2022-10-17T19:49:47.692Z,62.54
2022-10-17T19:52:54.686Z,62.41
2022-10-17T19:55:58.374Z,62.45
2022-10-17T19:59:02.464Z,62.21
2022-10-17T20:02:06.198Z,62.19
2022-10-17T20:05:18.389Z,62.13
2022-10-17T20:08:21.954Z,62.11
2022-10-17T20:11:27.320Z,62.04
2022-10-17T20:14:35.226Z,62.02
2022-10-17T20:17:42.659Z,62.03
2022-10-17T20:20:48.053Z,61.82
2022-10-17T20:23:51.877Z,61.94
2022-10-17T20:26:54.928Z,61.95
2022-10-17T20:30:01.788Z,61.85
2022-10-17T20:33:07.923Z,61.88
2022-10-17T20:36:13.165Z,61.83
2022-10-17T20:39:19.965Z,61.72
2022-10-17T20:42:22.829Z,61.69
2022-10-17T20:45:37.703Z,61.70
2022-10-17T20:48:55.306Z,61.69
2022-10-17T20:52:01.540Z,61.74
2022-10-17T20:55:05.018Z,61.66
2022-10-17T20:58:14.501Z,61.71
2022-10-17T21:01:18.129Z,61.74
2022-10-17T21:04:44.610Z,61.82
2022-10-17T21:07:49.859Z,61.78
2022-10-17T21:11:10.200Z,61.74
2022-10-17T21:14:16.842Z,61.58
2022-10-17T21:17:21.851Z,61.59
2022-10-17T21:20:27.219Z,61.44
2022-10-17T21:23:30.426Z,61.32
2022-10-17T21:26:37.310Z,61.30
2022-10-17T21:29:41.728Z,61.32
2022-10-17T21:32:51.608Z,61.22
2022-10-17T21:35:55.341Z,61.08
2022-10-17T21:39:00.188Z,61.11
2022-10-17T21:42:06.122Z,61.08
2022-10-17T21:45:15.369Z,60.96
2022-10-17T21:48:23.040Z,60.83
2022-10-17T21:51:26.948Z,60.83
2022-10-17T21:54:29.849Z,60.81
2022-10-17T21:57:32.759Z,60.75
2022-10-17T22:00:35.539Z,60.63
2022-10-17T22:03:44.088Z,60.61
2022-10-17T22:06:51.363Z,60.70
2022-10-17T22:09:54.286Z,60.67
2022-10-17T22:12:57.391Z,60.61
2022-10-17T22:16:01.736Z,60.50
2022-10-17T22:19:06.772Z,60.23
2022-10-17T22:22:09.839Z,60.35
2022-10-17T22:25:12.754Z,60.36
2022-10-17T22:28:15.755Z,60.12
2022-10-17T22:31:19.509Z,60.25
2022-10-17T22:34:22.388Z,60.16
2022-10-17T22:37:25.268Z,60.05
2022-10-17T22:40:28.165Z,59.95
2022-10-17T22:43:31.532Z,59.99
2022-10-17T22:46:37.051Z,59.87
2022-10-17T22:49:39.948Z,59.85
2022-10-17T22:52:42.871Z,59.72
2022-10-17T22:55:56.254Z,59.68
2022-10-17T22:58:59.192Z,59.65
2022-10-17T23:02:02.250Z,59.64
2022-10-17T23:05:07.455Z,59.50
2022-10-17T23:08:11.413Z,59.53
2022-10-17T23:11:14.360Z,59.56
2022-10-17T23:14:17.361Z,59.52
2022-10-17T23:17:20.255Z,59.47
2022-10-17T23:20:23.166Z,59.49
2022-10-17T23:23:26.249Z,59.43
2022-10-17T23:26:29.124Z,59.43
2022-10-17T23:29:33.376Z,59.41
2022-10-17T23:32:36.244Z,59.42
2022-10-17T23:35:39.166Z,59.52
2022-10-17T23:38:43.442Z,59.57
2022-10-17T23:41:46.521Z,59.58
2022-10-17T23:44:49.477Z,59.73
2022-10-17T23:47:52.341Z,59.72
2022-10-17T23:50:56.105Z,59.71
2022-10-17T23:53:59.260Z,59.74
2022-10-17T23:57:02.211Z,59.74
